createdAt,value
2023-03-18T00:02:12.842Z,18.08
2023-03-18T00:04:43.704Z,14.05
2023-03-18T00:07:14.521Z,11.88
2023-03-18T00:09:46.729Z,19.38
2023-03-18T00:12:17.360Z,20.92
2023-03-18T00:14:47.930Z,13.82
2023-03-18T00:17:18.372Z,11.15
2023-03-18T00:19:49.251Z,12.43
2023-03-18T00:22:22.857Z,9.85
2023-03-18T00:24:55.681Z,12.23
2023-03-18T00:27:26.312Z,11.88
2023-03-18T00:29:56.916Z,14.88
2023-03-18T00:32:29.171Z,11.30
2023-03-18T00:34:59.748Z,11.73
2023-03-18T00:37:32.713Z,11.18
2023-03-18T00:40:07.656Z,14.77
2023-03-18T00:42:48.194Z,10.73
2023-03-18T00:45:19.713Z,18.60
2023-03-18T00:47:51.106Z,10.75
2023-03-18T00:50:21.748Z,17.13
2023-03-18T00:52:52.674Z,13.93
2023-03-18T00:55:25.129Z,14.93
2023-03-18T00:57:55.715Z,14.48
2023-03-18T01:00:27.035Z,15.43
2023-03-18T01:02:57.766Z,12.07
2023-03-18T01:05:28.375Z,13.27
2023-03-18T01:07:58.940Z,11.38
2023-03-18T01:10:31.311Z,12.07
2023-03-18T01:13:02.787Z,12.13
2023-03-18T01:15:33.338Z,10.65
2023-03-18T01:18:04.951Z,12.43
2023-03-18T01:20:35.566Z,10.32
2023-03-18T01:23:06.493Z,12.07
2023-03-18T01:25:39.084Z,9.82
2023-03-18T01:28:09.823Z,12.13
2023-03-18T01:30:40.433Z,14.32
2023-03-18T01:33:11.498Z,14.05
2023-03-18T01:35:42.116Z,8.27
2023-03-18T01:38:13.279Z,14.07
2023-03-18T01:40:46.195Z,11.55
2023-03-18T01:43:20.378Z,10.45
2023-03-18T01:45:53.362Z,7.85
2023-03-18T01:48:26.758Z,6.18
2023-03-18T01:51:02.290Z,5.80
2023-03-18T01:53:38.039Z,7.22
2023-03-18T01:56:11.507Z,8.68
2023-03-18T01:58:44.624Z,9.05
2023-03-18T02:01:21.405Z,7.82
2023-03-18T02:03:53.760Z,8.25
2023-03-18T02:06:24.245Z,6.10
2023-03-18T02:08:55.412Z,8.50
2023-03-18T02:11:27.964Z,4.35
2023-03-18T02:13:58.493Z,7.10
2023-03-18T02:16:33.540Z,7.18
2023-03-18T02:19:09.082Z,6.03
2023-03-18T02:21:50.779Z,10.02
2023-03-18T02:24:39.690Z,5.45
2023-03-18T02:27:21.364Z,5.38
2023-03-18T02:29:55.693Z,6.03
2023-03-18T02:32:29.637Z,3.42
2023-03-18T02:35:02.492Z,4.75
2023-03-18T02:37:32.995Z,4.50
2023-03-18T02:40:17.592Z,5.25
2023-03-18T02:42:50.106Z,2.45
2023-03-18T02:45:36.369Z,4.82
2023-03-18T02:48:10.524Z,3.35
2023-03-18T02:50:42.389Z,5.95
2023-03-18T02:53:15.011Z,3.30
2023-03-18T02:55:45.558Z,5.47
2023-03-18T02:58:17.602Z,4.45
2023-03-18T03:00:47.960Z,4.07
2023-03-18T03:03:18.744Z,2.92
2023-03-18T03:05:49.539Z,4.50
2023-03-18T03:08:20.239Z,4.32
2023-03-18T03:10:51.920Z,3.58
2023-03-18T03:13:25.400Z,3.20
2023-03-18T03:15:56.680Z,3.53
2023-03-18T03:18:27.450Z,6.45
2023-03-18T03:20:57.937Z,7.72
2023-03-18T03:23:28.501Z,4.65
2023-03-18T03:25:59.019Z,3.30
2023-03-18T03:28:31.608Z,5.68
2023-03-18T03:31:02.659Z,5.18
2023-03-18T03:33:33.223Z,7.03
2023-03-18T03:36:03.725Z,3.75
2023-03-18T03:38:34.528Z,3.95
2023-03-18T03:41:04.971Z,4.05
2023-03-18T03:43:37.118Z,5.43
2023-03-18T03:46:08.021Z,11.23
2023-03-18T03:48:40.219Z,4.70
2023-03-18T03:51:10.704Z,4.65
2023-03-18T03:53:41.715Z,4.22
2023-03-18T03:56:12.233Z,6.35
2023-03-18T03:58:44.432Z,4.25
2023-03-18T04:01:14.934Z,4.90
2023-03-18T04:03:45.475Z,4.90
2023-03-18T04:06:16.238Z,10.25
2023-03-18T04:08:47.087Z,3.80
2023-03-18T04:11:21.232Z,5.00
2023-03-18T04:13:53.274Z,6.30
2023-03-18T04:16:24.041Z,3.50
2023-03-18T04:18:54.602Z,30.88
2023-03-18T04:21:25.025Z,5.35
2023-03-18T04:23:55.562Z,6.40
2023-03-18T04:26:26.098Z,6.28
2023-03-18T04:28:58.194Z,4.35
2023-03-18T04:31:29.293Z,7.63
2023-03-18T04:34:00.711Z,6.22
2023-03-18T04:36:31.183Z,6.28
2023-03-18T04:39:02.149Z,6.70
2023-03-18T04:41:32.638Z,5.18
2023-03-18T04:44:04.815Z,5.82
2023-03-18T04:46:35.934Z,4.20
2023-03-18T04:49:06.537Z,3.50
2023-03-18T04:51:38.522Z,6.88
2023-03-18T04:54:09.179Z,8.18
2023-03-18T04:56:39.994Z,5.15
2023-03-18T04:59:12.807Z,5.68
2023-03-18T05:01:43.268Z,4.95
2023-03-18T05:04:13.999Z,3.75
2023-03-18T05:06:44.501Z,3.58
2023-03-18T05:09:15.269Z,9.98
2023-03-18T05:11:58.897Z,3.83
2023-03-18T05:14:31.841Z,4.15
2023-03-18T05:17:02.372Z,4.70
2023-03-18T05:19:33.679Z,4.63
2023-03-18T05:22:04.166Z,5.20
2023-03-18T05:24:48.565Z,6.88
2023-03-18T05:27:20.668Z,4.15
2023-03-18T05:29:52.741Z,3.83
2023-03-18T05:32:23.265Z,7.07
2023-03-18T05:34:53.866Z,5.72
2023-03-18T05:37:24.346Z,6.47
2023-03-18T05:39:54.818Z,6.00
2023-03-18T05:42:25.365Z,5.47
2023-03-18T05:44:58.749Z,4.82
2023-03-18T05:47:29.190Z,5.72
2023-03-18T05:49:59.701Z,7.78
2023-03-18T05:52:30.228Z,8.07
2023-03-18T05:55:00.791Z,4.05
2023-03-18T05:57:31.274Z,9.05
2023-03-18T06:00:04.480Z,7.55
2023-03-18T06:02:35.130Z,7.68
2023-03-18T06:05:06.009Z,7.57
2023-03-18T06:07:39.810Z,6.95
2023-03-18T06:10:12.822Z,5.32
2023-03-18T06:12:45.345Z,4.28
2023-03-18T06:15:18.036Z,5.55
2023-03-18T06:17:48.546Z,4.13
2023-03-18T06:20:20.307Z,6.28
2023-03-18T06:22:51.391Z,6.18
2023-03-18T06:25:23.197Z,5.43
2023-03-18T06:27:53.963Z,6.07
2023-03-18T06:30:26.775Z,6.07
2023-03-18T06:32:57.284Z,7.47
2023-03-18T06:35:28.981Z,4.63
2023-03-18T06:37:59.333Z,5.10
2023-03-18T06:40:29.669Z,4.13
2023-03-18T06:43:00.112Z,8.20
2023-03-18T06:45:32.266Z,5.50
2023-03-18T06:48:04.715Z,7.53
2023-03-18T06:50:35.411Z,5.68
2023-03-18T06:53:06.332Z,8.20
2023-03-18T06:55:36.880Z,7.20
2023-03-18T06:58:07.833Z,6.97
2023-03-18T07:00:42.423Z,10.55
2023-03-18T07:03:12.902Z,8.13
2023-03-18T07:05:43.326Z,5.53
2023-03-18T07:08:14.099Z,6.72
2023-03-18T07:10:44.832Z,5.22
2023-03-18T07:13:16.267Z,10.38
2023-03-18T07:15:48.433Z,8.70
2023-03-18T07:18:19.382Z,6.38
2023-03-18T07:20:49.963Z,6.03
2023-03-18T07:23:20.547Z,5.72
2023-03-18T07:25:51.070Z,7.65
2023-03-18T07:28:21.922Z,7.22
2023-03-18T07:30:54.424Z,8.10
2023-03-18T07:33:24.952Z,6.93
2023-03-18T07:35:55.563Z,4.05
2023-03-18T07:38:26.360Z,2.83
2023-03-18T07:40:57.634Z,4.55
2023-03-18T07:43:28.115Z,3.97
2023-03-18T07:46:00.631Z,5.57
2023-03-18T07:48:31.493Z,5.60
2023-03-18T07:51:01.940Z,4.07
2023-03-18T07:53:35.655Z,7.80
2023-03-18T07:56:06.136Z,8.48
2023-03-18T07:58:36.671Z,6.88
2023-03-18T08:01:09.194Z,6.53
2023-03-18T08:03:45.464Z,5.88
2023-03-18T08:06:16.557Z,3.60
2023-03-18T08:08:52.755Z,10.27
2023-03-18T08:11:23.213Z,8.27
2023-03-18T08:13:58.668Z,5.00
2023-03-18T08:16:32.349Z,3.90
2023-03-18T08:19:08.462Z,6.15
2023-03-18T08:21:39.101Z,9.68
2023-03-18T08:24:13.012Z,7.32
2023-03-18T08:26:43.711Z,9.60
2023-03-18T08:29:14.217Z,7.72
2023-03-18T08:31:48.781Z,8.52
2023-03-18T08:34:19.319Z,4.93
2023-03-18T08:36:49.863Z,6.85
2023-03-18T08:39:21.014Z,8.27
2023-03-18T08:41:51.575Z,6.47
2023-03-18T08:44:24.649Z,4.80
2023-03-18T08:47:09.589Z,6.28
2023-03-18T08:49:43.311Z,8.18
2023-03-18T08:52:14.718Z,6.72
2023-03-18T08:54:48.309Z,7.22
2023-03-18T08:57:18.910Z,8.40
2023-03-18T08:59:51.949Z,5.25
2023-03-18T09:02:24.433Z,9.55
2023-03-18T09:05:43.415Z,9.35
2023-03-18T09:08:30.356Z,12.75
2023-03-18T09:11:01.138Z,11.40
2023-03-18T09:13:40.338Z,15.73
2023-03-18T09:16:11.628Z,19.48
2023-03-18T09:19:03.198Z,10.77
2023-03-18T09:21:42.823Z,11.10
2023-03-18T09:24:32.001Z,13.35
2023-03-18T09:27:08.918Z,9.90
2023-03-18T09:29:39.733Z,5.60
2023-03-18T09:32:12.032Z,10.35
2023-03-18T09:34:45.491Z,13.05
2023-03-18T09:37:16.134Z,11.98
2023-03-18T09:39:47.001Z,11.70
2023-03-18T09:42:32.103Z,12.65
2023-03-18T09:45:08.319Z,13.52
2023-03-18T09:47:58.901Z,18.38
2023-03-18T09:50:40.996Z,23.38
2023-03-18T09:53:26.630Z,13.00
2023-03-18T09:56:01.908Z,9.88
2023-03-18T09:58:47.303Z,10.50
2023-03-18T10:01:20.072Z,17.20
2023-03-18T10:03:58.808Z,15.00
2023-03-18T10:06:32.990Z,12.68
2023-03-18T10:09:12.706Z,17.00
2023-03-18T10:11:48.377Z,10.18
2023-03-18T10:14:42.465Z,9.95
2023-03-18T10:17:31.958Z,6.13
2023-03-18T10:20:15.374Z,9.43
2023-03-18T10:23:10.047Z,10.52
2023-03-18T10:25:47.749Z,4.15
2023-03-18T10:28:45.208Z,8.38
2023-03-18T10:31:33.431Z,7.03
2023-03-18T10:34:10.625Z,8.43
2023-03-18T10:36:52.170Z,6.88
2023-03-18T10:39:28.190Z,9.00
2023-03-18T10:42:02.394Z,6.70
2023-03-18T10:44:39.496Z,6.40
2023-03-18T10:47:19.796Z,10.65
2023-03-18T10:52:37.979Z,5.63
2023-03-18T10:55:18.433Z,7.78
2023-03-18T10:57:49.019Z,6.55
2023-03-18T11:00:31.177Z,6.78
2023-03-18T11:03:06.806Z,19.35
2023-03-18T11:05:42.137Z,15.70
2023-03-18T11:08:36.199Z,12.18
2023-03-18T11:11:25.294Z,8.40
2023-03-18T11:14:00.774Z,13.55
2023-03-18T11:16:39.101Z,20.25
2023-03-18T11:19:38.117Z,16.65
2023-03-18T11:22:23.660Z,10.13
2023-03-18T11:25:15.044Z,11.02
2023-03-18T11:27:49.251Z,17.35
2023-03-18T11:30:33.937Z,19.33
2023-03-18T11:33:16.567Z,17.17
2023-03-18T11:35:51.461Z,12.45
2023-03-18T11:38:23.689Z,8.75
2023-03-18T11:40:59.380Z,6.78
2023-03-18T11:43:31.846Z,11.85
2023-03-18T11:46:08.045Z,11.23
2023-03-18T11:48:50.556Z,8.65
2023-03-18T11:51:36.212Z,9.77
2023-03-18T11:54:22.372Z,13.93
2023-03-18T11:56:58.191Z,15.15
2023-03-18T11:59:52.543Z,11.27
2023-03-18T12:02:48.597Z,9.07
2023-03-18T12:05:44.444Z,7.35
2023-03-18T12:08:23.693Z,13.23
2023-03-18T12:11:10.343Z,7.18
2023-03-18T12:13:56.397Z,10.93
2023-03-18T12:16:45.835Z,8.02
2023-03-18T12:19:40.273Z,9.20
2023-03-18T12:22:25.972Z,11.32
2023-03-18T12:25:34.633Z,10.10
2023-03-18T12:28:19.662Z,9.15
2023-03-18T12:31:05.343Z,4.93
2023-03-18T12:33:48.578Z,10.90
2023-03-18T12:36:29.248Z,9.93
2023-03-18T12:39:41.211Z,6.38
2023-03-18T12:42:19.392Z,9.20
2023-03-18T12:45:03.830Z,9.05
2023-03-18T12:47:39.362Z,6.88
2023-03-18T12:50:20.460Z,7.88
2023-03-18T12:52:56.860Z,10.45
2023-03-18T12:55:37.199Z,5.22
2023-03-18T12:58:18.512Z,9.32
2023-03-18T13:00:57.568Z,15.45
2023-03-18T13:04:22.145Z,12.20
2023-03-18T13:07:20.573Z,11.23
2023-03-18T13:10:01.567Z,19.60
2023-03-18T13:12:38.099Z,14.20
2023-03-18T13:15:18.345Z,12.82
2023-03-18T13:17:54.357Z,18.80
2023-03-18T13:20:44.597Z,18.13
2023-03-18T13:23:42.826Z,20.17
2023-03-18T13:26:28.190Z,14.50
2023-03-18T13:29:19.741Z,15.93
2023-03-18T13:31:58.044Z,18.77
2023-03-18T13:34:57.693Z,15.95
2023-03-18T13:38:05.976Z,13.90
2023-03-18T13:40:59.586Z,17.23
2023-03-18T13:43:32.968Z,22.45
2023-03-18T13:46:08.051Z,18.27
2023-03-18T13:48:53.404Z,20.98
2023-03-18T13:52:02.530Z,20.02
2023-03-18T13:54:56.939Z,20.48
2023-03-18T13:57:50.400Z,25.27
2023-03-18T14:00:41.282Z,26.02
2023-03-18T14:03:33.840Z,27.52
2023-03-18T14:06:46.393Z,30.60
2023-03-18T14:09:50.037Z,26.58
2023-03-18T14:12:43.490Z,23.77
2023-03-18T14:15:45.334Z,29.08
2023-03-18T14:18:30.076Z,30.85
2023-03-18T14:21:06.402Z,29.70
2023-03-18T14:23:44.005Z,28.23
2023-03-18T14:26:30.294Z,26.83
2023-03-18T14:29:32.222Z,35.08
2023-03-18T14:32:09.840Z,30.30
2023-03-18T14:34:57.504Z,36.15
2023-03-18T14:37:32.779Z,31.58
2023-03-18T14:40:09.980Z,33.35
2023-03-18T14:43:02.093Z,33.30
2023-03-18T14:45:38.307Z,27.85
2023-03-18T14:48:22.389Z,29.35
2023-03-18T14:50:55.526Z,35.83
2023-03-18T14:53:46.837Z,31.45
2023-03-18T14:56:22.636Z,32.70
2023-03-18T14:58:56.303Z,32.42
2023-03-18T15:01:37.025Z,26.63
2023-03-18T15:04:28.337Z,26.98
2023-03-18T15:07:04.337Z,29.98
2023-03-18T15:09:39.058Z,24.30
2023-03-18T15:12:27.605Z,26.23
2023-03-18T15:14:58.601Z,29.63
2023-03-18T15:17:29.859Z,25.48
2023-03-18T15:20:02.831Z,24.05
2023-03-18T15:22:36.477Z,25.70
2023-03-18T15:25:13.046Z,30.35
2023-03-18T15:27:55.893Z,28.17
2023-03-18T15:30:36.553Z,26.23
2023-03-18T15:33:12.644Z,26.92
2023-03-18T15:35:48.455Z,22.02
2023-03-18T15:38:27.595Z,24.58
2023-03-18T15:41:04.175Z,23.10
2023-03-18T15:44:01.162Z,25.70
2023-03-18T15:46:47.195Z,23.55
2023-03-18T15:49:51.898Z,24.02
2023-03-18T15:54:03.093Z,20.92
2023-03-18T15:56:46.207Z,24.13
2023-03-18T15:59:18.500Z,17.92
2023-03-18T16:01:49.574Z,19.33
2023-03-18T16:04:21.031Z,21.65
2023-03-18T16:06:54.915Z,26.58
2023-03-18T16:09:26.613Z,20.00
2023-03-18T16:12:16.704Z,22.75
2023-03-18T16:19:56.550Z,20.90
2023-03-18T16:22:27.270Z,22.95
2023-03-18T16:25:02.075Z,16.60
2023-03-18T16:27:39.139Z,23.52
2023-03-18T16:30:18.804Z,20.58
2023-03-18T16:32:49.665Z,17.50
2023-03-18T16:35:22.158Z,18.55
2023-03-18T16:37:53.897Z,19.50
2023-03-18T16:40:26.619Z,20.73
2023-03-18T16:43:03.372Z,16.27
2023-03-18T16:45:40.206Z,15.27
2023-03-18T16:48:17.959Z,17.52
2023-03-18T16:50:50.964Z,12.15
2023-03-18T16:53:27.399Z,20.42
2023-03-18T16:56:00.577Z,18.10
2023-03-18T16:58:36.941Z,20.77
2023-03-18T17:01:08.259Z,16.02
2023-03-18T17:03:43.440Z,17.45
2023-03-18T17:06:14.111Z,22.58
2023-03-18T17:08:47.390Z,24.73
2023-03-18T17:11:20.586Z,18.05
2023-03-18T17:13:54.422Z,18.60
2023-03-18T17:16:30.720Z,19.52
2023-03-18T17:19:01.685Z,15.93
2023-03-18T17:21:35.743Z,14.50
2023-03-18T17:24:12.676Z,17.02
2023-03-18T17:26:43.993Z,21.35
2023-03-18T17:29:24.440Z,14.65
2023-03-18T17:31:57.933Z,14.07
2023-03-18T17:34:28.543Z,18.55
2023-03-18T17:37:02.193Z,11.60
2023-03-18T17:39:35.515Z,14.48
2023-03-18T17:42:08.777Z,13.55
2023-03-18T17:44:44.348Z,15.43
2023-03-18T17:47:20.249Z,17.10
2023-03-18T17:49:54.758Z,13.60
2023-03-18T17:52:28.302Z,19.42
2023-03-18T17:54:58.834Z,12.45
2023-03-18T17:57:29.506Z,12.98
2023-03-18T18:00:01.810Z,13.40
2023-03-18T18:02:40.278Z,12.15
2023-03-18T18:05:17.146Z,12.65
2023-03-18T18:07:51.077Z,10.65
2023-03-18T18:10:23.338Z,13.77
2023-03-18T18:12:54.414Z,13.60
2023-03-18T18:15:28.494Z,10.95
2023-03-18T18:18:04.681Z,10.73
2023-03-18T18:20:35.355Z,15.65
2023-03-18T18:23:09.533Z,11.73
2023-03-18T18:25:39.987Z,14.32
2023-03-18T18:28:20.336Z,10.43
2023-03-18T18:30:52.808Z,11.70
2023-03-18T18:33:26.567Z,10.30
2023-03-18T18:36:01.043Z,11.88
2023-03-18T18:38:31.684Z,10.48
2023-03-18T18:41:03.471Z,12.90
2023-03-18T18:43:34.317Z,13.35
2023-03-18T18:46:09.800Z,12.02
2023-03-18T18:48:44.446Z,11.90
2023-03-18T18:51:22.226Z,10.95
2023-03-18T18:53:57.576Z,14.43
2023-03-18T18:56:35.417Z,11.25
2023-03-18T18:59:18.957Z,11.52
2023-03-18T19:01:54.404Z,11.07
2023-03-18T19:04:26.349Z,11.27
2023-03-18T19:06:59.413Z,12.70
2023-03-18T19:09:34.885Z,12.38
2023-03-18T19:12:27.771Z,11.88
2023-03-18T19:14:58.487Z,11.38
2023-03-18T19:17:31.372Z,10.18
2023-03-18T19:20:01.750Z,8.82
2023-03-18T19:22:32.533Z,9.07
2023-03-18T19:25:06.027Z,11.45
2023-03-18T19:27:36.740Z,16.30
2023-03-18T19:30:23.494Z,15.90
2023-03-18T19:32:55.544Z,12.57
2023-03-18T19:35:26.313Z,12.57
2023-03-18T19:37:57.322Z,8.95
2023-03-18T19:40:36.826Z,8.65
2023-03-18T19:43:15.757Z,12.38
2023-03-18T19:45:51.846Z,10.77
2023-03-18T19:48:29.377Z,14.57
2023-03-18T19:51:02.008Z,11.00
2023-03-18T19:53:35.137Z,11.13
2023-03-18T19:56:08.154Z,14.68
2023-03-18T19:58:42.346Z,11.80
2023-03-18T20:01:12.947Z,8.65
2023-03-18T20:03:44.941Z,12.00
2023-03-18T20:06:15.394Z,9.45
2023-03-18T20:08:45.906Z,9.18
2023-03-18T20:11:17.804Z,7.68
2023-03-18T20:16:20.415Z,13.32
2023-03-18T20:18:52.459Z,10.05
2023-03-18T20:21:28.166Z,12.82
2023-03-18T20:24:02.718Z,12.35
2023-03-18T20:26:33.149Z,10.90
2023-03-18T20:29:04.677Z,13.63
2023-03-18T20:31:35.129Z,17.02
2023-03-18T20:34:07.403Z,11.05
2023-03-18T20:36:37.944Z,11.05
2023-03-18T20:39:09.018Z,16.27
2023-03-18T20:41:40.189Z,14.85
2023-03-18T20:44:14.929Z,9.77
2023-03-18T20:46:45.240Z,12.93
2023-03-18T20:49:17.246Z,8.88
2023-03-18T20:51:47.772Z,11.13
2023-03-18T20:54:20.788Z,12.85
2023-03-18T20:56:51.071Z,11.85
2023-03-18T20:59:21.496Z,9.70
2023-03-18T21:01:52.237Z,14.52
2023-03-18T21:04:24.445Z,13.40
2023-03-18T21:06:54.897Z,9.32
2023-03-18T21:09:25.317Z,11.90
2023-03-18T21:11:55.715Z,10.93
2023-03-18T21:14:26.147Z,9.95
2023-03-18T21:16:56.600Z,10.07
2023-03-18T21:19:28.614Z,10.20
2023-03-18T21:21:59.441Z,11.93
2023-03-18T21:24:31.316Z,12.95
2023-03-18T21:27:05.057Z,14.88
2023-03-18T21:29:36.239Z,12.00
2023-03-18T21:32:07.242Z,11.88
2023-03-18T21:34:39.402Z,15.82
2023-03-18T21:37:16.700Z,12.43
2023-03-18T21:39:47.229Z,12.85
2023-03-18T21:42:23.098Z,8.45
2023-03-18T21:44:53.658Z,14.02
2023-03-18T21:47:26.008Z,12.90
2023-03-18T21:49:58.043Z,16.83
2023-03-18T21:52:32.462Z,17.95
2023-03-18T21:55:03.880Z,17.05
2023-03-18T21:57:37.899Z,17.23
2023-03-18T22:00:09.548Z,18.42
2023-03-18T22:02:40.671Z,15.90
2023-03-18T22:05:16.847Z,23.63
2023-03-18T22:07:47.662Z,23.92
2023-03-18T22:10:20.456Z,24.88
2023-03-18T22:12:50.857Z,21.90
2023-03-18T22:15:37.451Z,20.60
2023-03-18T22:18:09.676Z,26.02
2023-03-18T22:20:42.582Z,25.70
2023-03-18T22:23:21.032Z,25.45
2023-03-18T22:25:53.459Z,26.30
2023-03-18T22:28:24.851Z,24.50
2023-03-18T22:31:00.854Z,25.25
2023-03-18T22:33:35.650Z,45.10
2023-03-18T22:36:26.275Z,97.60
2023-03-18T22:38:56.630Z,32.92
2023-03-18T22:41:31.027Z,41.67
2023-03-18T22:44:05.302Z,47.17
2023-03-18T22:46:35.740Z,32.60
2023-03-18T22:49:08.975Z,32.28
2023-03-18T22:51:42.986Z,30.98
2023-03-18T22:54:20.306Z,31.45
2023-03-18T22:56:50.675Z,32.92
2023-03-18T22:59:21.078Z,24.50
2023-03-18T23:01:51.674Z,31.48
2023-03-18T23:04:22.128Z,30.77
2023-03-18T23:06:54.325Z,23.90
2023-03-18T23:09:24.736Z,28.25
2023-03-18T23:11:55.245Z,17.67
2023-03-18T23:14:25.721Z,17.35
2023-03-18T23:16:56.284Z,16.75
2023-03-18T23:19:26.741Z,16.65
2023-03-18T23:21:58.812Z,17.60
2023-03-18T23:24:29.113Z,20.77
2023-03-18T23:26:59.544Z,23.00
2023-03-18T23:29:29.958Z,22.15
2023-03-18T23:32:03.008Z,27.38
2023-03-18T23:34:33.425Z,34.25
2023-03-18T23:37:05.432Z,36.42
2023-03-18T23:39:35.890Z,42.53
2023-03-18T23:42:06.627Z,50.80
2023-03-18T23:44:39.896Z,58.38
2023-03-18T23:47:11.372Z,50.70
2023-03-18T23:49:42.509Z,37.15
2023-03-18T23:52:16.826Z,32.90
2023-03-18T23:54:47.246Z,36.85
2023-03-18T23:57:17.848Z,44.70
2023-03-18T23:59:48.367Z,31.48
